Time;durP1;ratioP1;P1;durP2;ratioP2;P2;SDS_P1;SDS_P2;PMS_P1;PMS_P2;Temp;Humidity;BMP_temperature;BMP_pressure;BME280_temperature;BME280_humidity;BME280_pressure;Samples;Min_cycle;Max_cycle;Signal;HPM_P1;HPM_P2
2022/12/28 00:01:21;;;;;;;3.80;3.50;;;7.90;99.90;;;;;;5052375;28;20428;-64
2022/12/28 00:03:48;;;;;;;4.07;3.70;;;7.80;99.90;;;;;;5048559;28;20521;-69
2022/12/28 00:06:15;;;;;;;3.53;3.33;;;7.90;99.90;;;;;;5047974;28;20836;-65
2022/12/28 00:08:40;;;;;;;4.77;4.27;;;8.10;99.90;;;;;;5056740;28;20514;-64
2022/12/28 00:11:13;;;;;;;4.70;4.00;;;8.20;99.90;;;;;;5058679;28;20505;-64
2022/12/28 00:13:39;;;;;;;3.93;3.67;;;8.20;99.90;;;;;;5050996;28;20243;-64
2022/12/28 00:16:17;;;;;;;4.33;4.00;;;8.40;99.90;;;;;;5037323;28;20680;-67
2022/12/28 00:18:43;;;;;;;5.87;4.43;;;8.40;99.90;;;;;;5050475;28;20190;-67
2022/12/28 00:21:08;;;;;;;3.90;3.60;;;8.20;99.90;;;;;;5044014;28;20922;-64
2022/12/28 00:23:34;;;;;;;6.50;4.10;;;8.10;99.90;;;;;;5049475;28;20226;-64
2022/12/28 00:26:12;;;;;;;3.87;3.57;;;8.00;99.90;;;;;;5064431;28;20189;-64
2022/12/28 00:28:38;;;;;;;3.97;3.30;;;8.10;99.90;;;;;;5063895;28;20921;-64
2022/12/28 00:31:04;;;;;;;3.70;3.40;;;8.10;99.90;;;;;;5054481;28;21065;-64
2022/12/28 00:33:30;;;;;;;3.77;3.50;;;8.00;99.90;;;;;;5064279;28;20463;-64
2022/12/28 00:35:58;;;;;;;5.10;3.80;;;8.10;99.90;;;;;;5043079;28;20449;-64
2022/12/28 00:38:24;;;;;;;4.57;4.17;;;8.20;99.90;;;;;;5051530;28;20495;-64
2022/12/28 00:40:50;;;;;;;3.63;3.33;;;8.20;99.90;;;;;;5055305;28;20474;-68
2022/12/28 00:43:16;;;;;;;3.90;3.60;;;8.30;99.90;;;;;;5057812;28;20197;-65
2022/12/28 00:45:45;;;;;;;4.23;3.53;;;8.40;99.90;;;;;;5061816;28;20960;-64
2022/12/28 00:48:12;;;;;;;6.33;3.63;;;8.40;99.90;;;;;;5071650;28;20212;-64
2022/12/28 00:50:37;;;;;;;4.27;3.87;;;8.50;99.90;;;;;;5046488;28;20443;-64
2022/12/28 00:53:04;;;;;;;4.27;3.87;;;8.60;99.90;;;;;;5058828;28;20843;-66
2022/12/28 00:55:29;;;;;;;5.83;4.07;;;8.60;99.90;;;;;;5056443;28;20228;-67
2022/12/28 00:57:58;;;;;;;5.87;3.67;;;8.50;99.90;;;;;;5053567;28;20451;-64
2022/12/28 01:00:24;;;;;;;4.00;3.57;;;8.50;99.90;;;;;;5061053;28;20436;-64
2022/12/28 01:02:50;;;;;;;3.93;3.30;;;8.60;99.90;;;;;;5071838;28;20431;-64
2022/12/28 01:05:15;;;;;;;4.90;3.33;;;8.70;99.90;;;;;;5063182;28;20763;-64
2022/12/28 01:07:41;;;;;;;4.30;4.00;;;8.70;99.90;;;;;;5062790;28;20189;-64
2022/12/28 01:10:08;;;;;;;3.60;3.30;;;8.70;99.90;;;;;;5053120;28;20229;-63
2022/12/28 01:12:36;;;;;;;5.27;3.60;;;8.50;99.90;;;;;;5051212;28;20257;-69
2022/12/28 01:15:06;;;;;;;3.77;3.20;;;8.50;99.90;;;;;;5053901;28;20904;-63
2022/12/28 01:17:32;;;;;;;3.77;3.40;;;8.50;99.90;;;;;;5066395;28;20954;-63
2022/12/28 01:19:59;;;;;;;3.63;3.33;;;8.50;99.90;;;;;;5063155;28;20428;-64
2022/12/28 01:22:25;;;;;;;3.30;3.00;;;8.60;99.90;;;;;;5049856;28;20424;-64
2022/12/28 01:24:51;;;;;;;3.30;2.90;;;8.60;99.90;;;;;;5068322;28;20463;-64
2022/12/28 01:27:17;;;;;;;3.20;3.00;;;8.40;99.90;;;;;;5069331;28;20922;-64
2022/12/28 01:29:43;;;;;;;5.23;3.30;;;8.40;99.90;;;;;;5063251;28;20899;-65
2022/12/28 01:32:09;;;;;;;4.97;3.23;;;8.40;99.90;;;;;;5063861;28;20949;-64
2022/12/28 01:34:34;;;;;;;3.73;3.40;;;8.50;99.90;;;;;;5055778;28;20467;-64
2022/12/28 01:37:00;;;;;;;3.57;3.27;;;8.60;99.90;;;;;;5062012;28;20492;-64
2022/12/28 01:39:26;;;;;;;3.80;3.07;;;8.50;99.90;;;;;;5055702;28;20198;-64
2022/12/28 01:41:51;;;;;;;3.67;3.37;;;8.30;99.90;;;;;;5045157;28;20166;-69
2022/12/28 01:44:23;;;;;;;3.40;3.10;;;8.40;99.90;;;;;;5049404;28;20182;-66
2022/12/28 01:46:54;;;;;;;4.87;3.63;;;8.50;99.90;;;;;;5062887;28;20197;-69
2022/12/28 01:49:44;;;;;;;4.10;3.40;;;8.40;99.90;;;;;;5041964;28;21094;-67
2022/12/28 01:52:22;;;;;;;3.43;3.13;;;8.40;99.90;;;;;;5056430;28;20430;-64
2022/12/28 01:55:01;;;;;;;4.10;3.70;;;8.50;99.90;;;;;;5049424;28;20420;-69
2022/12/28 01:57:31;;;;;;;3.90;3.60;;;8.50;99.90;;;;;;5056894;28;20496;-64
2022/12/28 02:00:05;;;;;;;3.77;3.33;;;8.40;99.90;;;;;;5064955;28;20424;-65
2022/12/28 02:02:31;;;;;;;3.83;3.53;;;8.50;99.90;;;;;;5052665;28;20455;-64
2022/12/28 02:04:58;;;;;;;3.67;3.30;;;8.50;99.90;;;;;;5053412;28;20440;-64
2022/12/28 02:07:40;;;;;;;3.50;3.30;;;8.50;99.90;;;;;;5071849;28;20431;-69
2022/12/28 02:10:08;;;;;;;4.00;3.70;;;8.50;99.90;;;;;;5036787;28;20427;-66
2022/12/28 02:12:34;;;;;;;3.20;3.00;;;8.50;99.90;;;;;;5047763;28;20423;-64
2022/12/28 02:15:00;;;;;;;3.90;3.60;;;8.50;99.90;;;;;;5041898;28;20415;-64
2022/12/28 02:17:26;;;;;;;3.70;3.40;;;8.50;99.90;;;;;;5053366;28;20288;-64
2022/12/28 02:19:52;;;;;;;4.17;3.77;;;8.60;99.90;;;;;;5050901;28;21075;-69
2022/12/28 02:22:17;;;;;;;4.70;3.50;;;8.60;99.90;;;;;;5054018;28;20423;-64
2022/12/28 02:25:21;;;;;;;3.80;3.57;;;8.70;99.90;;;;;;5072577;28;20181;-64
2022/12/28 02:28:26;;;;;;;4.20;3.90;;;8.60;99.90;;;;;;5057664;28;20197;-63
2022/12/28 02:31:03;;;;;;;4.00;3.70;;;8.70;99.90;;;;;;5052656;28;20439;-69
2022/12/28 02:33:41;;;;;;;5.10;3.53;;;8.70;99.90;;;;;;5053914;28;20424;-64
2022/12/28 02:36:21;;;;;;;3.57;3.33;;;8.80;99.90;;;;;;5053449;28;20444;-64
2022/12/28 02:38:56;;;;;;;5.00;3.83;;;8.90;99.90;;;;;;5073192;28;20444;-64
2022/12/28 02:41:24;;;;;;;5.83;3.77;;;8.80;99.90;;;;;;5054588;28;20454;-64
2022/12/28 02:43:52;;;;;;;3.60;3.40;;;8.90;99.90;;;;;;5061757;28;20764;-69
2022/12/28 02:52:07;;;;;;;3.87;3.67;;;8.70;99.90;;;;;;5050771;28;20463;-66
2022/12/28 02:57:58;;;;;;;4.00;3.70;;;8.80;99.90;;;;;;5058262;28;20209;-67
2022/12/28 03:00:29;;;;;;;3.90;3.70;;;8.60;99.90;;;;;;5040980;28;20546;-64
2022/12/28 03:03:19;;;;;;;4.10;3.80;;;8.60;99.90;;;;;;5068518;28;20792;-67
2022/12/28 03:09:16;;;;;;;3.97;3.57;;;8.60;99.90;;;;;;5055819;28;20479;-64
2022/12/28 03:12:04;;;;;;;4.30;3.90;;;8.70;99.90;;;;;;5051672;28;20459;-64
2022/12/28 03:14:46;;;;;;;6.10;4.37;;;8.70;99.90;;;;;;5050164;28;20424;-67
2022/12/28 03:31:16;;;;;;;4.10;3.73;;;8.90;99.90;;;;;;5049541;28;21009;-65
2022/12/28 03:33:47;;;;;;;4.37;3.97;;;8.90;99.90;;;;;;5050811;28;20539;-64
2022/12/28 03:36:41;;;;;;;5.07;4.53;;;8.90;99.90;;;;;;5048365;28;20450;-65
2022/12/28 03:39:54;;;;;;;5.07;4.23;;;8.80;99.90;;;;;;5054152;28;20537;-64
2022/12/28 03:45:26;;;;;;;4.13;3.93;;;8.80;99.90;;;;;;5051447;28;20412;-64
2022/12/28 03:47:53;;;;;;;3.93;3.73;;;8.90;99.90;;;;;;5031644;28;20885;-66
2022/12/28 03:50:20;;;;;;;3.70;3.47;;;8.80;99.90;;;;;;5062471;28;20484;-64
2022/12/28 03:52:46;;;;;;;4.27;3.97;;;8.80;99.90;;;;;;5064594;28;20484;-64
2022/12/28 03:55:17;;;;;;;4.40;4.10;;;8.80;99.90;;;;;;5058765;28;20421;-66
2022/12/28 03:57:42;;;;;;;4.37;3.97;;;8.80;99.90;;;;;;5064672;28;20469;-65
2022/12/28 04:00:09;;;;;;;4.10;3.70;;;8.90;99.90;;;;;;5043443;28;20799;-68
2022/12/28 04:02:36;;;;;;;4.13;3.83;;;8.80;99.90;;;;;;5050066;28;20185;-65
2022/12/28 04:05:02;;;;;;;4.80;4.40;;;8.80;99.90;;;;;;5047415;28;20458;-64
2022/12/28 04:07:28;;;;;;;4.53;4.03;;;8.90;99.90;;;;;;5049823;28;20436;-64
2022/12/28 04:09:54;;;;;;;3.80;3.60;;;8.70;99.90;;;;;;5062772;28;20511;-68
2022/12/28 04:12:19;;;;;;;4.27;3.87;;;8.90;99.90;;;;;;5051455;28;20302;-64
2022/12/28 04:14:45;;;;;;;4.50;4.10;;;9.00;99.90;;;;;;5053976;28;20242;-64
2022/12/28 04:17:11;;;;;;;5.30;3.90;;;9.10;99.90;;;;;;5043986;28;20197;-64
2022/12/28 04:19:36;;;;;;;3.90;3.70;;;9.00;99.90;;;;;;5063953;28;20712;-64
2022/12/28 04:22:02;;;;;;;4.40;4.10;;;9.10;99.90;;;;;;5048446;28;20174;-64
2022/12/28 04:24:28;;;;;;;4.70;4.30;;;9.10;99.90;;;;;;5050777;28;20231;-64
2022/12/28 04:26:56;;;;;;;3.83;3.60;;;9.10;99.90;;;;;;5048452;28;20283;-68
2022/12/28 04:29:22;;;;;;;4.77;4.00;;;9.10;99.90;;;;;;5059059;28;20465;-64
2022/12/28 04:31:47;;;;;;;4.40;4.00;;;9.20;99.90;;;;;;5064144;28;20637;-64
2022/12/28 04:34:14;;;;;;;4.60;4.20;;;9.20;99.90;;;;;;5070616;28;20225;-64
2022/12/28 04:36:41;;;;;;;3.67;3.50;;;9.10;99.90;;;;;;5057799;28;20272;-65
2022/12/28 04:39:07;;;;;;;3.80;3.40;;;9.10;99.90;;;;;;5057467;28;20439;-65
2022/12/28 04:41:33;;;;;;;3.53;3.30;;;9.20;99.90;;;;;;5068719;28;20511;-64
2022/12/28 04:43:59;;;;;;;4.20;3.90;;;9.20;99.90;;;;;;5070069;28;20411;-69
2022/12/28 04:46:24;;;;;;;4.73;4.13;;;9.20;99.90;;;;;;5052571;28;20224;-64
2022/12/28 04:48:50;;;;;;;4.37;4.00;;;9.30;99.90;;;;;;5050476;28;20182;-65
2022/12/28 04:51:17;;;;;;;3.70;3.50;;;9.20;99.90;;;;;;5070579;28;20173;-65
2022/12/28 04:53:43;;;;;;;3.90;3.60;;;9.30;99.90;;;;;;5067509;28;20268;-65
2022/12/28 04:56:11;;;;;;;4.17;3.77;;;9.30;99.90;;;;;;5062673;28;20528;-65
2022/12/28 04:58:37;;;;;;;4.00;3.70;;;9.20;99.90;;;;;;5068336;28;20207;-65
2022/12/28 05:01:11;;;;;;;4.00;3.63;;;9.30;99.90;;;;;;5055820;28;20950;-65
2022/12/28 05:03:38;;;;;;;3.90;3.60;;;9.40;99.90;;;;;;5053864;28;20476;-65
2022/12/28 05:06:07;;;;;;;4.00;3.70;;;9.40;99.90;;;;;;5055662;28;20438;-65
2022/12/28 05:08:35;;;;;;;3.63;3.50;;;9.30;99.90;;;;;;5053809;28;20433;-65
2022/12/28 05:11:01;;;;;;;4.23;3.93;;;9.20;99.90;;;;;;5051662;28;20456;-69
2022/12/28 05:13:27;;;;;;;3.80;3.60;;;9.30;99.90;;;;;;5057535;28;20435;-65
2022/12/28 05:15:53;;;;;;;3.93;3.73;;;9.20;99.90;;;;;;5051690;28;20423;-65
2022/12/28 05:18:18;;;;;;;4.40;4.10;;;9.00;99.90;;;;;;5062286;28;20211;-66
2022/12/28 05:20:44;;;;;;;4.27;3.97;;;9.10;99.90;;;;;;5048731;28;20690;-65
2022/12/28 05:23:10;;;;;;;4.20;3.90;;;9.10;99.90;;;;;;5044475;28;20226;-65
2022/12/28 05:25:35;;;;;;;4.70;4.40;;;9.00;99.90;;;;;;5040304;28;20182;-65
2022/12/28 05:28:01;;;;;;;4.07;3.87;;;9.10;99.90;;;;;;5051206;28;20181;-69
2022/12/28 05:30:27;;;;;;;4.37;4.07;;;9.10;99.90;;;;;;5062765;28;20184;-69
2022/12/28 05:32:53;;;;;;;4.07;3.77;;;9.10;99.90;;;;;;5054285;28;20182;-68
2022/12/28 05:35:18;;;;;;;5.80;4.07;;;9.20;99.90;;;;;;5050593;28;20344;-64
2022/12/28 05:37:44;;;;;;;3.70;3.50;;;9.20;99.90;;;;;;5053358;28;20332;-65
2022/12/28 05:40:10;;;;;;;3.70;3.50;;;9.20;99.90;;;;;;5072424;28;20211;-65
2022/12/28 05:42:35;;;;;;;3.70;3.50;;;9.30;99.90;;;;;;5055728;28;20189;-65
2022/12/28 05:45:01;;;;;;;3.67;3.37;;;9.20;99.90;;;;;;5049931;28;20428;-69
2022/12/28 05:47:27;;;;;;;3.33;3.13;;;9.20;99.90;;;;;;5051386;28;20648;-65
2022/12/28 05:49:52;;;;;;;3.37;3.07;;;9.30;99.90;;;;;;5046274;28;20656;-64
2022/12/28 05:52:18;;;;;;;4.07;3.77;;;9.40;99.90;;;;;;5049951;28;20182;-65
2022/12/28 05:54:44;;;;;;;3.40;3.10;;;9.40;99.90;;;;;;5059358;28;20239;-65
2022/12/28 05:57:10;;;;;;;3.70;3.40;;;9.50;99.90;;;;;;5051387;28;20686;-65
2022/12/28 05:59:35;;;;;;;5.40;3.30;;;9.50;99.90;;;;;;5052911;28;20567;-65
2022/12/28 06:02:01;;;;;;;4.43;3.23;;;9.60;99.90;;;;;;5052400;28;20178;-69
2022/12/28 06:04:26;;;;;;;5.10;3.40;;;9.50;99.90;;;;;;5051061;28;20174;-64
2022/12/28 06:06:53;;;;;;;4.73;4.33;;;9.60;99.90;;;;;;5065725;28;20229;-65
2022/12/28 06:09:19;;;;;;;4.03;3.63;;;9.60;99.90;;;;;;5051778;28;20264;-65
2022/12/28 06:11:45;;;;;;;3.67;3.40;;;9.60;99.90;;;;;;5064880;28;20462;-64
2022/12/28 06:14:11;;;;;;;4.10;3.40;;;9.70;99.90;;;;;;5055924;28;20460;-64
2022/12/28 06:16:39;;;;;;;4.77;3.30;;;9.60;99.90;;;;;;5061274;28;20988;-64
2022/12/28 06:19:06;;;;;;;4.07;3.77;;;9.70;99.90;;;;;;5052289;28;20248;-68
2022/12/28 06:21:34;;;;;;;4.33;3.60;;;9.70;99.90;;;;;;5054438;28;20439;-65
2022/12/28 06:24:01;;;;;;;3.40;3.20;;;9.70;99.90;;;;;;5051545;28;20475;-65
2022/12/28 06:26:31;;;;;;;4.40;3.13;;;9.70;99.90;;;;;;5044358;28;20545;-64
2022/12/28 06:28:58;;;;;;;3.90;3.70;;;9.70;99.90;;;;;;5037649;28;20492;-65
2022/12/28 06:31:29;;;;;;;4.00;3.33;;;9.80;99.90;;;;;;5047419;28;20438;-64
2022/12/28 06:33:57;;;;;;;3.50;3.33;;;9.70;99.90;;;;;;5042424;28;20496;-64
2022/12/28 06:36:32;;;;;;;3.90;3.67;;;9.70;99.90;;;;;;5044164;28;21011;-65
2022/12/28 06:39:00;;;;;;;3.70;3.40;;;9.70;99.90;;;;;;5043305;28;20857;-64
2022/12/28 06:41:27;;;;;;;3.83;3.53;;;9.80;99.90;;;;;;5039970;28;20480;-63
2022/12/28 06:43:53;;;;;;;4.20;3.90;;;9.70;99.90;;;;;;5046309;28;20521;-67
2022/12/28 06:46:22;;;;;;;4.67;4.23;;;9.70;99.90;;;;;;5053021;28;20789;-64
2022/12/28 06:48:48;;;;;;;3.70;3.50;;;9.80;99.90;;;;;;5046672;28;20436;-64
2022/12/28 06:51:27;;;;;;;4.30;3.90;;;9.70;99.90;;;;;;5048554;28;20791;-64
2022/12/28 06:53:54;;;;;;;4.10;3.80;;;9.70;99.90;;;;;;5051150;28;20986;-63
2022/12/28 06:56:25;;;;;;;5.77;4.70;;;9.70;99.90;;;;;;5047559;28;20440;-65
2022/12/28 06:58:52;;;;;;;3.70;3.60;;;9.70;99.90;;;;;;5046962;28;20516;-65
2022/12/28 07:01:20;;;;;;;3.97;3.70;;;9.70;99.90;;;;;;5050095;28;20434;-64
2022/12/28 07:03:48;;;;;;;3.73;3.53;;;9.70;99.90;;;;;;5053063;28;20431;-65
2022/12/28 07:06:15;;;;;;;3.87;3.63;;;9.70;99.90;;;;;;5044599;28;20537;-65
2022/12/28 07:08:42;;;;;;;3.53;3.43;;;9.80;99.90;;;;;;5050496;28;20434;-65
2022/12/28 07:11:11;;;;;;;3.60;3.40;;;9.70;99.90;;;;;;5046141;28;20467;-70
2022/12/28 07:13:37;;;;;;;5.23;3.63;;;9.80;99.90;;;;;;5048352;28;20420;-64
2022/12/28 07:16:04;;;;;;;3.60;3.40;;;9.80;99.90;;;;;;5051872;28;20435;-63
2022/12/28 07:18:32;;;;;;;3.37;3.27;;;9.70;99.90;;;;;;5049486;28;20558;-64
2022/12/28 07:21:02;;;;;;;4.33;4.03;;;9.80;99.90;;;;;;5051122;28;20454;-64
2022/12/28 07:23:30;;;;;;;3.87;3.37;;;9.80;99.90;;;;;;5049759;28;20497;-64
2022/12/28 07:26:06;;;;;;;3.40;3.20;;;9.70;99.90;;;;;;5049206;28;20425;-63
2022/12/28 07:28:32;;;;;;;4.07;3.73;;;9.70;99.90;;;;;;5036039;28;20444;-63
2022/12/28 07:30:57;;;;;;;3.63;3.43;;;9.80;99.90;;;;;;5050166;28;20426;-63
2022/12/28 07:33:23;;;;;;;3.70;3.40;;;9.80;99.90;;;;;;5047067;28;20539;-63
2022/12/28 07:35:49;;;;;;;3.93;3.73;;;9.90;99.90;;;;;;5048563;28;20682;-63
2022/12/28 07:38:14;;;;;;;3.60;3.40;;;9.90;99.90;;;;;;5046553;28;20211;-63
2022/12/28 07:40:40;;;;;;;3.50;3.30;;;10.00;99.90;;;;;;5044349;28;20193;-63
2022/12/28 07:43:06;;;;;;;3.53;3.33;;;9.90;99.90;;;;;;5051293;28;20635;-69
2022/12/28 07:45:31;;;;;;;3.33;3.23;;;10.00;99.90;;;;;;5039822;28;20191;-63
2022/12/28 07:47:59;;;;;;;4.40;4.10;;;9.90;99.90;;;;;;5050230;28;20558;-63
2022/12/28 07:50:25;;;;;;;3.63;3.43;;;9.90;99.90;;;;;;5041700;28;20269;-63
2022/12/28 07:52:51;;;;;;;3.80;3.53;;;9.90;99.90;;;;;;5049499;28;20512;-63
2022/12/28 07:55:16;;;;;;;3.70;3.50;;;9.90;99.90;;;;;;5048382;28;20188;-63
2022/12/28 07:57:42;;;;;;;3.43;3.23;;;9.80;99.90;;;;;;5046737;28;20626;-63
2022/12/28 08:00:08;;;;;;;3.17;3.00;;;9.80;99.90;;;;;;5044742;28;20201;-68
2022/12/28 08:02:34;;;;;;;3.30;3.20;;;9.70;99.90;;;;;;5051982;28;20186;-63
2022/12/28 08:05:00;;;;;;;3.43;3.23;;;9.80;99.90;;;;;;5059124;28;20481;-63
2022/12/28 08:07:26;;;;;;;3.37;3.17;;;9.80;99.90;;;;;;5049528;28;20201;-65
2022/12/28 08:09:51;;;;;;;3.63;3.43;;;9.90;99.90;;;;;;5051272;28;20612;-65
2022/12/28 08:12:17;;;;;;;3.40;3.20;;;9.90;99.90;;;;;;5045435;28;20440;-65
2022/12/28 08:14:43;;;;;;;3.87;3.13;;;9.80;99.90;;;;;;5047107;28;20225;-66
2022/12/28 08:17:09;;;;;;;4.07;3.87;;;9.90;99.90;;;;;;5042375;28;22174;-70
2022/12/28 08:19:34;;;;;;;3.30;3.20;;;9.80;99.90;;;;;;5045129;28;20192;-65
2022/12/28 08:22:00;;;;;;;3.10;3.00;;;9.90;99.90;;;;;;5042635;28;20440;-66
2022/12/28 08:24:26;;;;;;;3.80;3.60;;;10.00;99.90;;;;;;5058280;28;20188;-65
2022/12/28 08:26:52;;;;;;;3.60;3.50;;;9.90;99.90;;;;;;5052019;28;20612;-64
2022/12/28 08:29:20;;;;;;;3.97;3.77;;;9.90;99.90;;;;;;5044921;28;20519;-65
2022/12/28 08:31:46;;;;;;;3.50;3.30;;;9.90;99.90;;;;;;5040440;28;20940;-65
2022/12/28 08:34:15;;;;;;;3.93;3.70;;;9.90;99.90;;;;;;5031444;28;20456;-67
2022/12/28 08:36:41;;;;;;;3.73;3.53;;;9.90;99.90;;;;;;5041467;28;20815;-66
2022/12/28 08:39:07;;;;;;;3.70;3.50;;;9.90;99.90;;;;;;5055241;28;20506;-65
2022/12/28 08:41:33;;;;;;;3.73;3.53;;;9.90;99.90;;;;;;5055017;28;20409;-65
2022/12/28 08:43:59;;;;;;;3.97;3.77;;;10.00;99.90;;;;;;5061276;28;21898;-65
2022/12/28 08:46:27;;;;;;;3.80;3.50;;;10.00;99.90;;;;;;5051636;28;20479;-64
2022/12/28 08:48:55;;;;;;;3.97;3.77;;;10.00;99.90;;;;;;5060694;28;20435;-65
2022/12/28 08:51:22;;;;;;;3.77;3.67;;;10.00;99.90;;;;;;5039031;28;20434;-65
2022/12/28 08:53:48;;;;;;;3.93;3.73;;;10.10;99.90;;;;;;5058130;28;20525;-65
2022/12/28 08:56:20;;;;;;;4.43;4.03;;;10.10;99.90;;;;;;5055293;28;20424;-67
2022/12/28 08:58:47;;;;;;;3.93;3.67;;;10.10;99.90;;;;;;5050743;28;20515;-65
2022/12/28 09:01:21;;;;;;;4.23;4.03;;;10.10;99.90;;;;;;5072680;28;20424;-67
2022/12/28 09:03:49;;;;;;;3.60;3.50;;;10.10;99.90;;;;;;5064029;28;20449;-68
2022/12/28 09:06:17;;;;;;;3.90;3.70;;;10.20;99.90;;;;;;5045731;28;20443;-68
2022/12/28 09:08:44;;;;;;;4.10;3.90;;;10.20;99.90;;;;;;5047150;28;20445;-65
2022/12/28 09:11:11;;;;;;;3.70;3.60;;;10.20;99.90;;;;;;5046339;28;20943;-65
2022/12/28 09:13:37;;;;;;;3.50;3.40;;;10.10;99.90;;;;;;5050933;28;20421;-68
2022/12/28 09:16:09;;;;;;;3.90;3.70;;;10.10;99.90;;;;;;5048727;28;20805;-65
2022/12/28 09:18:36;;;;;;;3.57;3.47;;;10.00;99.90;;;;;;5048804;28;20529;-66
2022/12/28 09:21:17;;;;;;;3.83;3.63;;;10.10;99.90;;;;;;5049961;28;20438;-66
2022/12/28 09:23:44;;;;;;;3.80;3.63;;;10.10;99.90;;;;;;5048310;28;20438;-67
2022/12/28 09:26:16;;;;;;;3.80;3.50;;;10.20;99.90;;;;;;5044930;28;20428;-65
2022/12/28 09:28:51;;;;;;;4.10;3.90;;;10.20;99.90;;;;;;5049717;28;20431;-66
2022/12/28 09:31:18;;;;;;;3.20;3.10;;;10.20;99.90;;;;;;5049252;28;20423;-65
2022/12/28 09:33:59;;;;;;;3.40;3.30;;;10.20;99.90;;;;;;5064064;28;20834;-65
2022/12/28 09:36:42;;;;;;;3.10;3.00;;;10.20;99.90;;;;;;5046711;28;20450;-65
2022/12/28 09:39:16;;;;;;;3.63;3.43;;;10.30;99.90;;;;;;5045869;28;20458;-65
2022/12/28 09:41:48;;;;;;;3.20;3.10;;;10.30;99.90;;;;;;5043941;28;20523;-70
2022/12/28 09:44:20;;;;;;;3.00;2.90;;;10.40;99.90;;;;;;5056112;28;20432;-74
2022/12/28 09:47:16;;;;;;;3.47;3.30;;;10.40;99.90;;;;;;5057627;28;20434;-76
2022/12/28 09:49:58;;;;;;;3.50;3.30;;;10.50;99.90;;;;;;5063941;28;20441;-77
2022/12/28 09:53:06;;;;;;;3.40;3.30;;;10.50;99.90;;;;;;5048415;28;20909;-73
2022/12/28 09:55:34;;;;;;;3.80;3.60;;;10.50;99.90;;;;;;5053634;28;20907;-73
2022/12/28 09:58:02;;;;;;;3.40;3.30;;;10.60;99.90;;;;;;5060736;28;20464;-72
2022/12/28 10:00:44;;;;;;;4.17;3.97;;;10.60;99.90;;;;;;5043628;28;20996;-72
2022/12/28 10:03:30;;;;;;;3.23;3.13;;;10.70;99.90;;;;;;5044691;28;20822;-78
2022/12/28 10:05:57;;;;;;;3.47;3.20;;;10.70;99.90;;;;;;5050928;28;20439;-73
2022/12/28 10:08:24;;;;;;;3.70;3.50;;;10.70;99.90;;;;;;5048628;28;20480;-73
2022/12/28 10:10:51;;;;;;;3.20;3.10;;;10.70;99.90;;;;;;5052841;28;20526;-70
2022/12/28 10:13:27;;;;;;;3.40;3.20;;;10.80;99.90;;;;;;5053437;28;20452;-75
2022/12/28 10:15:54;;;;;;;2.93;2.83;;;10.80;99.90;;;;;;5050427;28;20590;-71
2022/12/28 10:18:26;;;;;;;3.30;3.10;;;10.90;99.90;;;;;;5048016;28;20463;-72
2022/12/28 10:20:52;;;;;;;3.17;3.07;;;10.90;99.90;;;;;;5048252;28;20461;-69
2022/12/28 10:23:30;;;;;;;3.17;3.07;;;10.70;99.90;;;;;;5049102;28;20449;-72
2022/12/28 10:25:59;;;;;;;3.50;3.30;;;10.60;99.90;;;;;;5036022;28;20933;-70
2022/12/28 10:28:32;;;;;;;3.50;3.30;;;10.60;99.90;;;;;;5042536;28;20442;-71
2022/12/28 10:31:07;;;;;;;4.60;3.93;;;10.70;99.90;;;;;;5045203;28;20431;-66
2022/12/28 10:33:39;;;;;;;3.40;3.20;;;10.80;99.90;;;;;;5047717;28;20452;-66
2022/12/28 10:36:09;;;;;;;3.70;3.50;;;10.80;99.90;;;;;;5035845;28;20441;-69
2022/12/28 10:38:36;;;;;;;4.40;3.40;;;10.80;99.90;;;;;;5044315;28;20538;-70
2022/12/28 10:41:05;;;;;;;3.70;3.50;;;10.80;99.90;;;;;;5037645;28;21797;-71
2022/12/28 10:43:37;;;;;;;3.57;3.37;;;10.80;99.90;;;;;;5046491;28;20508;-69
2022/12/28 10:46:06;;;;;;;3.50;3.40;;;10.80;99.90;;;;;;5042449;28;20488;-69
2022/12/28 10:48:38;;;;;;;3.87;3.67;;;10.80;99.90;;;;;;5050904;28;20493;-69
2022/12/28 10:51:16;;;;;;;3.70;3.50;;;10.80;99.90;;;;;;5058252;28;20428;-70
2022/12/28 10:53:43;;;;;;;3.53;3.43;;;10.80;99.90;;;;;;5060691;28;20431;-68
2022/12/28 10:56:12;;;;;;;4.50;3.90;;;10.90;99.90;;;;;;5057318;28;21217;-70
2022/12/28 10:58:40;;;;;;;3.17;3.03;;;10.90;99.90;;;;;;5039045;28;20562;-69
2022/12/28 11:01:11;;;;;;;3.57;3.40;;;10.80;99.90;;;;;;5049420;28;20452;-69
2022/12/28 11:03:43;;;;;;;3.37;3.20;;;10.80;99.90;;;;;;5048592;28;20453;-69
2022/12/28 11:06:12;;;;;;;3.50;3.30;;;10.80;99.90;;;;;;5042488;28;20440;-69
2022/12/28 11:08:39;;;;;;;3.60;3.17;;;10.80;99.90;;;;;;5040967;28;20509;-69
2022/12/28 11:11:05;;;;;;;3.30;3.20;;;10.90;99.90;;;;;;5052127;28;20759;-68
2022/12/28 11:13:31;;;;;;;3.80;3.60;;;10.90;99.90;;;;;;5050492;28;20519;-70
2022/12/28 11:15:58;;;;;;;3.40;3.30;;;11.10;99.90;;;;;;5048783;28;20458;-70
2022/12/28 11:18:24;;;;;;;4.00;3.80;;;11.20;99.90;;;;;;5052565;28;20465;-70
2022/12/28 11:20:52;;;;;;;4.00;3.80;;;11.40;99.90;;;;;;5049513;28;20460;-70
2022/12/28 11:23:24;;;;;;;3.70;3.50;;;11.60;99.90;;;;;;5056119;28;20447;-70
2022/12/28 11:25:51;;;;;;;3.90;3.80;;;11.90;99.90;;;;;;5053034;28;20423;-69
2022/12/28 11:28:21;;;;;;;3.80;3.57;;;12.00;99.90;;;;;;5048128;28;20423;-68
2022/12/28 11:30:49;;;;;;;3.53;3.33;;;12.10;99.90;;;;;;5050260;28;20461;-68
2022/12/28 11:33:33;;;;;;;3.80;3.60;;;12.20;99.90;;;;;;5051280;28;20432;-69
2022/12/28 11:36:00;;;;;;;3.37;3.27;;;12.40;99.90;;;;;;5050543;28;20833;-69
2022/12/28 11:38:41;;;;;;;3.27;3.07;;;12.50;99.90;;;;;;5032105;28;20510;-68
2022/12/28 11:41:24;;;;;;;3.30;3.10;;;12.60;99.90;;;;;;5068685;28;20601;-69
2022/12/28 11:43:55;;;;;;;3.00;2.90;;;12.50;99.90;;;;;;5068581;28;20424;-70
2022/12/28 11:46:20;;;;;;;3.20;3.10;;;12.40;99.90;;;;;;5066138;28;20434;-69
2022/12/28 11:49:04;;;;;;;3.13;3.03;;;12.40;99.90;;;;;;5069385;28;20439;-69
2022/12/28 11:51:33;;;;;;;4.70;3.37;;;12.40;99.90;;;;;;5063025;28;20227;-69
2022/12/28 11:54:00;;;;;;;3.30;3.20;;;12.30;99.90;;;;;;5068661;28;20407;-65
2022/12/28 11:56:43;;;;;;;3.17;2.97;;;12.30;99.90;;;;;;5060577;28;20520;-65
2022/12/28 11:59:31;;;;;;;3.97;3.20;;;12.40;99.90;;;;;;5081957;28;20515;-65
2022/12/28 12:01:58;;;;;;;3.67;3.30;;;12.50;99.90;;;;;;5067629;28;20435;-65
2022/12/28 12:04:40;;;;;;;4.00;3.80;;;12.50;99.90;;;;;;5067853;28;20425;-66
2022/12/28 12:07:21;;;;;;;3.93;3.60;;;12.50;99.90;;;;;;5066762;28;20507;-67
2022/12/28 12:10:05;;;;;;;3.10;3.00;;;12.90;99.90;;;;;;5064585;28;20435;-70
2022/12/28 12:12:34;;;;;;;3.27;2.97;;;12.90;99.90;;;;;;5068134;28;20421;-68
2022/12/28 12:15:08;;;;;;;3.37;3.00;;;12.80;99.90;;;;;;5064768;28;20438;-69
2022/12/28 12:17:46;;;;;;;3.93;3.73;;;12.90;99.90;;;;;;5063463;28;20837;-68
2022/12/28 12:20:19;;;;;;;3.60;3.50;;;12.90;99.90;;;;;;5039960;28;20468;-67
2022/12/28 12:22:54;;;;;;;4.00;3.83;;;13.10;99.90;;;;;;5064925;28;20458;-68
2022/12/28 12:25:36;;;;;;;4.10;3.70;;;13.20;99.90;;;;;;5068167;28;20401;-69
2022/12/28 12:28:23;;;;;;;3.90;3.70;;;13.30;99.90;;;;;;5067572;28;20444;-69
2022/12/28 12:30:49;;;;;;;4.50;4.10;;;13.30;99.90;;;;;;5065168;28;20453;-69
2022/12/28 12:33:25;;;;;;;3.97;3.77;;;13.30;99.90;;;;;;5071239;28;20822;-69
2022/12/28 12:36:21;;;;;;;4.00;3.70;;;13.20;99.90;;;;;;5088045;28;20404;-69
2022/12/28 12:39:12;;;;;;;3.60;3.40;;;13.10;99.90;;;;;;5076503;28;20409;-67
2022/12/28 12:41:49;;;;;;;3.70;3.50;;;13.00;99.90;;;;;;5075629;28;20423;-67
2022/12/28 12:44:36;;;;;;;3.87;3.57;;;12.60;99.90;;;;;;5086761;28;20564;-67
2022/12/28 12:47:23;;;;;;;5.93;3.93;;;12.50;99.90;;;;;;5055000;28;20910;-71
2022/12/28 12:50:01;;;;;;;4.40;4.10;;;12.40;99.90;;;;;;5065444;28;20438;-65
2022/12/28 12:52:44;;;;;;;3.80;3.50;;;12.20;99.90;;;;;;5053315;28;20793;-65
2022/12/28 12:55:48;;;;;;;3.80;3.50;;;12.10;99.90;;;;;;5046152;28;20550;-66
2022/12/28 12:58:44;;;;;;;2.97;2.87;;;12.00;99.90;;;;;;5042290;28;20436;-66
2022/12/28 13:01:40;;;;;;;3.87;3.57;;;11.90;99.90;;;;;;5039593;28;20536;-64
2022/12/28 13:04:11;;;;;;;3.37;3.17;;;11.70;99.90;;;;;;5040177;28;20447;-66
2022/12/28 13:06:38;;;;;;;4.13;3.80;;;11.60;99.90;;;;;;5041560;28;20607;-66
2022/12/28 13:09:07;;;;;;;3.50;3.40;;;11.50;99.90;;;;;;5027645;28;20435;-65
2022/12/28 13:11:38;;;;;;;3.50;3.30;;;11.60;99.90;;;;;;5047937;28;20438;-66
2022/12/28 13:14:04;;;;;;;3.97;3.77;;;11.60;99.90;;;;;;5051473;28;20412;-67
2022/12/28 13:16:31;;;;;;;4.13;3.80;;;11.40;99.90;;;;;;5042648;28;20417;-67
2022/12/28 13:19:01;;;;;;;4.20;3.47;;;11.40;99.90;;;;;;5046238;28;20772;-65
2022/12/28 13:21:40;;;;;;;3.60;3.40;;;11.50;99.90;;;;;;5050679;28;20447;-66
2022/12/28 13:24:26;;;;;;;4.57;3.60;;;11.50;99.90;;;;;;5053408;28;20409;-66
2022/12/28 13:26:53;;;;;;;3.50;3.40;;;11.40;99.90;;;;;;5038223;28;20435;-66
2022/12/28 13:29:22;;;;;;;3.23;3.13;;;11.50;99.90;;;;;;5046222;28;20434;-66
2022/12/28 13:31:50;;;;;;;3.60;3.40;;;11.50;99.90;;;;;;5022321;28;20440;-66
2022/12/28 13:34:25;;;;;;;3.50;3.30;;;11.50;99.90;;;;;;5049570;28;20428;-65
2022/12/28 13:36:59;;;;;;;4.60;3.60;;;11.50;99.90;;;;;;5038562;28;20432;-65
2022/12/28 13:39:27;;;;;;;3.80;3.47;;;11.30;99.90;;;;;;5047519;28;20542;-67